sensor_id;sensor_type;location;lat;lon;timestamp;pressure;altitude;pressure_sealevel;temperature;humidity
60087;BME280;45960;53.630;55.972;2023-05-29T00:00:58;100235.53;;;19.09;49.21
60087;BME280;45960;53.630;55.972;2023-05-29T00:02:00;100222.69;;;19.11;49.16
60087;BME280;45960;53.630;55.972;2023-05-29T00:03:01;100218.59;;;19.07;49.35
60087;BME280;45960;53.630;55.972;2023-05-29T00:04:05;100225.56;;;19.09;49.18
60087;BME280;45960;53.630;55.972;2023-05-29T00:05:07;100234.19;;;19.13;49.35
60087;BME280;45960;53.630;55.972;2023-05-29T00:06:08;100222.38;;;19.14;49.33
60087;BME280;45960;53.630;55.972;2023-05-29T00:07:09;100227.47;;;19.17;49.43
60087;BME280;45960;53.630;55.972;2023-05-29T00:08:11;100232.59;;;19.20;49.56
60087;BME280;45960;53.630;55.972;2023-05-29T00:09:12;100234.97;;;19.23;49.45
60087;BME280;45960;53.630;55.972;2023-05-29T00:10:13;100232.78;;;19.27;49.36
60087;BME280;45960;53.630;55.972;2023-05-29T00:11:14;100226.22;;;19.29;49.31
60087;BME280;45960;53.630;55.972;2023-05-29T00:12:15;100235.56;;;19.35;49.33
60087;BME280;45960;53.630;55.972;2023-05-29T00:13:16;100230.72;;;19.38;49.32
60087;BME280;45960;53.630;55.972;2023-05-29T00:14:20;100236.66;;;19.42;49.09
60087;BME280;45960;53.630;55.972;2023-05-29T00:15:23;100235.47;;;19.44;49.12
60087;BME280;45960;53.630;55.972;2023-05-29T00:16:24;100231.44;;;19.49;48.97
60087;BME280;45960;53.630;55.972;2023-05-29T00:17:25;100220.06;;;19.45;49.12
60087;BME280;45960;53.630;55.972;2023-05-29T00:18:27;100234.19;;;19.57;49.13
60087;BME280;45960;53.630;55.972;2023-05-29T00:19:28;100239.31;;;19.60;49.13
60087;BME280;45960;53.630;55.972;2023-05-29T00:20:29;100238.97;;;19.63;49.10
60087;BME280;45960;53.630;55.972;2023-05-29T00:21:30;100238.69;;;19.66;49.08
60087;BME280;45960;53.630;55.972;2023-05-29T00:22:31;100238.53;;;19.67;49.25
60087;BME280;45960;53.630;55.972;2023-05-29T00:23:32;100242.09;;;19.68;49.01
60087;BME280;45960;53.630;55.972;2023-05-29T00:24:33;100242.09;;;19.68;48.78
60087;BME280;45960;53.630;55.972;2023-05-29T00:25:35;100232.72;;;19.62;48.75
60087;BME280;45960;53.630;55.972;2023-05-29T00:26:36;100239.25;;;19.70;48.74
60087;BME280;45960;53.630;55.972;2023-05-29T00:27:37;100245.19;;;19.73;48.50
60087;BME280;45960;53.630;55.972;2023-05-29T00:28:38;100241.44;;;19.74;48.55
60087;BME280;45960;53.630;55.972;2023-05-29T00:29:39;100235.69;;;19.77;48.47
60087;BME280;45960;53.630;55.972;2023-05-29T00:30:41;100239.13;;;19.79;48.51
60087;BME280;45960;53.630;55.972;2023-05-29T00:31:42;100242.53;;;19.81;48.55
60087;BME280;45960;53.630;55.972;2023-05-29T00:32:43;100245.09;;;19.83;48.52
60087;BME280;45960;53.630;55.972;2023-05-29T00:33:44;100222.84;;;19.79;48.77
60087;BME280;45960;53.630;55.972;2023-05-29T00:34:45;100242.56;;;19.89;49.08
60087;BME280;45960;53.630;55.972;2023-05-29T00:35:47;100235.81;;;19.94;48.98
60087;BME280;45960;53.630;55.972;2023-05-29T00:36:48;100237.53;;;19.95;49.06
60087;BME280;45960;53.630;55.972;2023-05-29T00:37:49;100240.59;;;20.00;48.95
60087;BME280;45960;53.630;55.972;2023-05-29T00:38:51;100239.56;;;20.01;49.20
60087;BME280;45960;53.630;55.972;2023-05-29T00:39:51;100241.63;;;20.07;49.19
60087;BME280;45960;53.630;55.972;2023-05-29T00:40:53;100239.63;;;20.09;49.21
60087;BME280;45960;53.630;55.972;2023-05-29T00:41:54;100240.97;;;20.13;49.08
60087;BME280;45960;53.630;55.972;2023-05-29T00:42:55;100245.22;;;20.16;49.04
60087;BME280;45960;53.630;55.972;2023-05-29T00:43:56;100236.75;;;20.19;48.95
60087;BME280;45960;53.630;55.972;2023-05-29T00:44:57;100240.03;;;20.22;48.70
60087;BME280;45960;53.630;55.972;2023-05-29T00:45:58;100240.53;;;20.26;48.72
60087;BME280;45960;53.630;55.972;2023-05-29T00:47:00;100233.94;;;20.28;48.71
60087;BME280;45960;53.630;55.972;2023-05-29T00:48:05;100239.03;;;20.31;48.50
60087;BME280;45960;53.630;55.972;2023-05-29T00:49:07;100240.38;;;20.35;48.68
60087;BME280;45960;53.630;55.972;2023-05-29T00:50:09;100231.91;;;20.39;48.55
60087;BME280;45960;53.630;55.972;2023-05-29T00:51:12;100239.75;;;20.42;48.45
60087;BME280;45960;53.630;55.972;2023-05-29T00:52:14;100242.13;;;20.45;48.34
60087;BME280;45960;53.630;55.972;2023-05-29T00:53:15;100235.69;;;20.46;48.18
60087;BME280;45960;53.630;55.972;2023-05-29T00:54:21;100240.44;;;20.52;48.28
60087;BME280;45960;53.630;55.972;2023-05-29T00:55:23;100247.28;;;20.56;48.40
60087;BME280;45960;53.630;55.972;2023-05-29T00:56:25;100243.41;;;20.59;48.46
60087;BME280;45960;53.630;55.972;2023-05-29T00:57:26;100245.78;;;20.62;48.40
60087;BME280;45960;53.630;55.972;2023-05-29T00:58:28;100236.44;;;20.64;48.51
60087;BME280;45960;53.630;55.972;2023-05-29T00:59:31;100238.84;;;20.67;48.40
60087;BME280;45960;53.630;55.972;2023-05-29T01:00:33;100236.78;;;20.69;48.42
60087;BME280;45960;53.630;55.972;2023-05-29T01:01:37;100234.75;;;20.71;48.37
60087;BME280;45960;53.630;55.972;2023-05-29T01:02:40;100232.72;;;20.73;48.48
60087;BME280;45960;53.630;55.972;2023-05-29T01:03:46;100237.81;;;20.76;48.36
60087;BME280;45960;53.630;55.972;2023-05-29T01:04:49;100237.47;;;20.79;48.18
60087;BME280;45960;53.630;55.972;2023-05-29T01:05:55;100236.13;;;20.84;47.97
60087;BME280;45960;53.630;55.972;2023-05-29T01:06:58;100235.63;;;20.88;47.69
60087;BME280;45960;53.630;55.972;2023-05-29T01:08:00;100241.56;;;20.92;47.80
60087;BME280;45960;53.630;55.972;2023-05-29T01:09:01;100231.22;;;20.95;47.77
60087;BME280;45960;53.630;55.972;2023-05-29T01:10:08;100226.31;;;20.99;47.71
60087;BME280;45960;53.630;55.972;2023-05-29T01:11:28;100231.41;;;21.02;47.71
60087;BME280;45960;53.630;55.972;2023-05-29T01:12:57;100228.00;;;21.00;47.88
60087;BME280;45960;53.630;55.972;2023-05-29T01:14:06;100236.81;;;21.02;47.89
60087;BME280;45960;53.630;55.972;2023-05-29T01:15:21;100239.38;;;21.04;47.67
60087;BME280;45960;53.630;55.972;2023-05-29T01:16:43;100240.91;;;21.06;47.84
60087;BME280;45960;53.630;55.972;2023-05-29T01:18:12;100241.56;;;21.08;47.55
60087;BME280;45960;53.630;55.972;2023-05-29T01:20:42;100246.31;;;21.14;47.72
60087;BME280;45960;53.630;55.972;2023-05-29T01:22:12;100246.03;;;21.17;47.54
60087;BME280;45960;53.630;55.972;2023-05-29T01:27:06;100250.09;;;21.30;47.67
60087;BME280;45960;53.630;55.972;2023-05-29T01:28:11;100245.00;;;21.35;47.77
60087;BME280;45960;53.630;55.972;2023-05-29T01:29:16;100256.38;;;21.38;47.74
60087;BME280;45960;53.630;55.972;2023-05-29T01:30:20;100247.03;;;21.41;47.64
60087;BME280;45960;53.630;55.972;2023-05-29T01:31:25;100244.81;;;21.44;47.73
60087;BME280;45960;53.630;55.972;2023-05-29T01:32:26;100251.78;;;21.47;47.81
60087;BME280;45960;53.630;55.972;2023-05-29T01:33:28;100247.03;;;21.49;47.95
60087;BME280;45960;53.630;55.972;2023-05-29T01:34:29;100245.84;;;21.52;47.91
60087;BME280;45960;53.630;55.972;2023-05-29T01:35:32;100233.44;;;21.49;47.69
60087;BME280;45960;53.630;55.972;2023-05-29T01:36:33;100238.19;;;21.55;47.60
60087;BME280;45960;53.630;55.972;2023-05-29T01:37:34;100241.25;;;21.60;47.83
60087;BME280;45960;53.630;55.972;2023-05-29T01:38:35;100239.56;;;21.59;47.57
60087;BME280;45960;53.630;55.972;2023-05-29T01:39:36;100242.59;;;21.64;47.56
60087;BME280;45960;53.630;55.972;2023-05-29T01:40:38;100220.69;;;21.58;47.32
60087;BME280;45960;53.630;55.972;2023-05-29T01:41:39;100233.91;;;21.69;47.13
60087;BME280;45960;53.630;55.972;2023-05-29T01:42:41;100236.47;;;21.71;46.88
60087;BME280;45960;53.630;55.972;2023-05-29T01:43:43;100232.53;;;21.73;46.34
60087;BME280;45960;53.630;55.972;2023-05-29T01:44:46;100232.03;;;21.78;45.65
60087;BME280;45960;53.630;55.972;2023-05-29T01:45:50;100236.13;;;21.82;45.27
60087;BME280;45960;53.630;55.972;2023-05-29T01:46:51;100234.72;;;21.86;45.04
60087;BME280;45960;53.630;55.972;2023-05-29T01:47:53;100232.34;;;21.91;44.96
60087;BME280;45960;53.630;55.972;2023-05-29T01:48:54;100233.66;;;21.95;45.00
60087;BME280;45960;53.630;55.972;2023-05-29T01:49:57;100232.97;;;22.01;44.98
60087;BME280;45960;53.630;55.972;2023-05-29T01:50:58;100225.47;;;22.03;44.84
60087;BME280;45960;53.630;55.972;2023-05-29T01:52:00;100227.69;;;22.08;44.78
60087;BME280;45960;53.630;55.972;2023-05-29T01:53:02;100230.22;;;22.09;44.85
60087;BME280;45960;53.630;55.972;2023-05-29T01:54:03;100232.25;;;22.16;44.77
60087;BME280;45960;53.630;55.972;2023-05-29T01:55:05;100204.56;;;22.04;44.68
60087;BME280;45960;53.630;55.972;2023-05-29T01:56:07;100225.09;;;22.23;44.48
60087;BME280;45960;53.630;55.972;2023-05-29T01:57:09;100235.63;;;22.26;44.58
60087;BME280;45960;53.630;55.972;2023-05-29T01:58:11;100242.44;;;22.30;44.54
60087;BME280;45960;53.630;55.972;2023-05-29T01:59:15;100231.19;;;22.33;44.27
60087;BME280;45960;53.630;55.972;2023-05-29T02:00:17;100235.22;;;22.37;44.29
60087;BME280;45960;53.630;55.972;2023-05-29T02:01:23;100245.97;;;22.39;44.36
60087;BME280;45960;53.630;55.972;2023-05-29T02:02:24;100242.88;;;22.42;44.64
60087;BME280;45960;53.630;55.972;2023-05-29T02:03:25;100244.41;;;22.44;44.92
60087;BME280;45960;53.630;55.972;2023-05-29T02:04:29;100235.19;;;22.45;44.87
60087;BME280;45960;53.630;55.972;2023-05-29T02:05:30;100242.84;;;22.50;44.92
60087;BME280;45960;53.630;55.972;2023-05-29T02:06:31;100247.09;;;22.52;44.60
60087;BME280;45960;53.630;55.972;2023-05-29T02:07:37;100239.56;;;22.54;44.66
60087;BME280;45960;53.630;55.972;2023-05-29T02:08:39;100244.69;;;22.58;44.37
60087;BME280;45960;53.630;55.972;2023-05-29T02:09:40;100240.91;;;22.59;44.61
60087;BME280;45960;53.630;55.972;2023-05-29T02:10:41;100239.16;;;22.66;44.77
60087;BME280;45960;53.630;55.972;2023-05-29T02:11:43;100249.88;;;22.67;44.91
60087;BME280;45960;53.630;55.972;2023-05-29T02:12:46;100244.06;;;22.70;44.86
60087;BME280;45960;53.630;55.972;2023-05-29T02:13:48;100248.31;;;22.73;44.77
60087;BME280;45960;53.630;55.972;2023-05-29T02:14:49;100250.00;;;22.74;44.70
60087;BME280;45960;53.630;55.972;2023-05-29T02:15:50;100240.81;;;22.75;44.66
60087;BME280;45960;53.630;55.972;2023-05-29T02:16:51;100239.09;;;22.74;44.49
60087;BME280;45960;53.630;55.972;2023-05-29T02:17:52;100237.41;;;22.73;44.38
60087;BME280;45960;53.630;55.972;2023-05-29T02:18:53;100250.34;;;22.71;44.21
60087;BME280;45960;53.630;55.972;2023-05-29T02:20:15;100247.00;;;22.69;44.26
60087;BME280;45960;53.630;55.972;2023-05-29T02:21:16;100243.22;;;22.70;43.86
60087;BME280;45960;53.630;55.972;2023-05-29T02:22:17;100242.38;;;22.69;44.16
60087;BME280;45960;53.630;55.972;2023-05-29T02:23:19;100238.81;;;22.69;43.92
60087;BME280;45960;53.630;55.972;2023-05-29T02:24:20;100247.00;;;22.69;43.62
60087;BME280;45960;53.630;55.972;2023-05-29T02:25:21;100243.22;;;22.70;43.73
60087;BME280;45960;53.630;55.972;2023-05-29T02:26:22;100230.66;;;22.69;43.90
60087;BME280;45960;53.630;55.972;2023-05-29T02:27:25;100233.06;;;22.64;44.26
60087;BME280;45960;53.630;55.972;2023-05-29T02:28:26;100242.56;;;22.68;43.98
60087;BME280;45960;53.630;55.972;2023-05-29T02:29:27;100234.75;;;22.65;43.90
60087;BME280;45960;53.630;55.972;2023-05-29T02:30:29;100247.31;;;22.66;44.19
60087;BME280;45960;53.630;55.972;2023-05-29T02:31:31;100251.09;;;22.65;44.38
60087;BME280;45960;53.630;55.972;2023-05-29T02:32:32;100254.47;;;22.67;44.35
60087;BME280;45960;53.630;55.972;2023-05-29T02:33:33;100250.72;;;22.68;44.50
60087;BME280;45960;53.630;55.972;2023-05-29T02:34:34;100251.75;;;22.67;44.57
60087;BME280;45960;53.630;55.972;2023-05-29T02:35:35;100261.25;;;22.71;44.39
60087;BME280;45960;53.630;55.972;2023-05-29T02:36:38;100257.53;;;22.72;43.72
60087;BME280;45960;53.630;55.972;2023-05-29T02:37:39;100252.91;;;22.72;43.33
60087;BME280;45960;53.630;55.972;2023-05-29T02:38:40;100247.47;;;22.72;42.22
60087;BME280;45960;53.630;55.972;2023-05-29T02:39:42;100247.47;;;22.72;42.70
60087;BME280;45960;53.630;55.972;2023-05-29T02:40:43;100251.72;;;22.75;42.42
60087;BME280;45960;53.630;55.972;2023-05-29T02:41:44;100253.41;;;22.76;42.03
60087;BME280;45960;53.630;55.972;2023-05-29T02:42:46;100258.47;;;22.79;42.33
60087;BME280;45960;53.630;55.972;2023-05-29T02:43:47;100251.00;;;22.81;42.23
60087;BME280;45960;53.630;55.972;2023-05-29T02:44:48;100251.66;;;22.83;42.79
60087;BME280;45960;53.630;55.972;2023-05-29T02:45:52;100254.38;;;22.83;43.08
60087;BME280;45960;53.630;55.972;2023-05-29T02:46:53;100250.63;;;22.84;43.10
60087;BME280;45960;53.630;55.972;2023-05-29T02:47:54;100255.03;;;22.85;43.54
60087;BME280;45960;53.630;55.972;2023-05-29T02:48:55;100250.25;;;22.87;43.55
60087;BME280;45960;53.630;55.972;2023-05-29T02:49:57;100247.38;;;22.89;43.52
60087;BME280;45960;53.630;55.972;2023-05-29T02:50:58;100253.66;;;22.89;43.24
60087;BME280;45960;53.630;55.972;2023-05-29T02:51:59;100253.66;;;22.89;43.10
60087;BME280;45960;53.630;55.972;2023-05-29T02:53:00;100248.22;;;22.89;42.89
60087;BME280;45960;53.630;55.972;2023-05-29T02:54:02;100246.69;;;22.87;43.00
60087;BME280;45960;53.630;55.972;2023-05-29T02:55:04;100253.66;;;22.89;42.47
60087;BME280;45960;53.630;55.972;2023-05-29T02:56:07;100255.34;;;22.90;41.52
60087;BME280;45960;53.630;55.972;2023-05-29T02:57:09;100260.44;;;22.93;40.66
60087;BME280;45960;53.630;55.972;2023-05-29T02:58:10;100256.38;;;22.97;40.34
60087;BME280;45960;53.630;55.972;2023-05-29T02:59:12;100254.31;;;22.99;39.63
60087;BME280;45960;53.630;55.972;2023-05-29T03:00:13;100244.09;;;22.93;39.47
60087;BME280;45960;53.630;55.972;2023-05-29T03:01:14;100255.16;;;23.00;39.52
60087;BME280;45960;53.630;55.972;2023-05-29T03:02:15;100247.16;;;22.98;39.40
60087;BME280;45960;53.630;55.972;2023-05-29T03:03:16;100257.81;;;23.08;40.28
60087;BME280;45960;53.630;55.972;2023-05-29T03:04:17;100262.91;;;23.11;40.83
60087;BME280;45960;53.630;55.972;2023-05-29T03:05:19;100263.53;;;23.13;41.07
60087;BME280;45960;53.630;55.972;2023-05-29T03:06:20;100265.94;;;23.16;40.68
60087;BME280;45960;53.630;55.972;2023-05-29T03:07:21;100264.69;;;23.19;39.93
60087;BME280;45960;53.630;55.972;2023-05-29T03:08:24;100260.59;;;23.23;40.13
60087;BME280;45960;53.630;55.972;2023-05-29T03:09:26;100268.22;;;23.28;40.55
60087;BME280;45960;53.630;55.972;2023-05-29T03:10:27;100258.63;;;23.32;40.85
60087;BME280;45960;53.630;55.972;2023-05-29T03:11:28;100267.28;;;23.35;40.55
60087;BME280;45960;53.630;55.972;2023-05-29T03:12:31;100264.19;;;23.38;40.00
60087;BME280;45960;53.630;55.972;2023-05-29T03:13:32;100261.78;;;23.43;39.93
60087;BME280;45960;53.630;55.972;2023-05-29T03:14:39;100263.09;;;23.48;39.72
60087;BME280;45960;53.630;55.972;2023-05-29T03:15:45;100264.41;;;23.52;39.19
60087;BME280;45960;53.630;55.972;2023-05-29T03:16:48;100255.22;;;23.53;38.45
60087;BME280;45960;53.630;55.972;2023-05-29T03:17:50;100267.75;;;23.62;38.16
60087;BME280;45960;53.630;55.972;2023-05-29T03:18:55;100269.72;;;23.68;38.01
60087;BME280;45960;53.630;55.972;2023-05-29T03:19:56;100270.91;;;23.74;37.68
60087;BME280;45960;53.630;55.972;2023-05-29T03:20:58;100276.44;;;23.80;37.51
60087;BME280;45960;53.630;55.972;2023-05-29T03:22:00;100278.44;;;23.86;37.67
60087;BME280;45960;53.630;55.972;2023-05-29T03:23:01;100284.84;;;23.94;36.60
60087;BME280;45960;53.630;55.972;2023-05-29T03:24:03;100279.22;;;23.95;35.84
60087;BME280;45960;53.630;55.972;2023-05-29T03:25:07;100257.94;;;23.90;34.90
60087;BME280;45960;53.630;55.972;2023-05-29T03:26:08;100278.63;;;24.00;34.05
60087;BME280;45960;53.630;55.972;2023-05-29T03:27:13;100280.03;;;24.10;33.80
60087;BME280;45960;53.630;55.972;2023-05-29T03:28:15;100270.91;;;24.18;34.26
60087;BME280;45960;53.630;55.972;2023-05-29T03:29:17;100271.50;;;24.28;34.14
60087;BME280;45960;53.630;55.972;2023-05-29T03:30:18;100268.00;;;24.34;33.28
60087;BME280;45960;53.630;55.972;2023-05-29T03:31:22;100271.63;;;24.42;33.53
60087;BME280;45960;53.630;55.972;2023-05-29T03:32:23;100278.06;;;24.49;32.90
60087;BME280;45960;53.630;55.972;2023-05-29T03:33:24;100280.69;;;24.57;32.63
60087;BME280;45960;53.630;55.972;2023-05-29T03:34:37;100294.63;;;24.62;32.26
60087;BME280;45960;53.630;55.972;2023-05-29T03:35:40;100274.09;;;24.66;31.24
60087;BME280;45960;53.630;55.972;2023-05-29T03:36:41;100282.56;;;24.71;31.27
60087;BME280;45960;53.630;55.972;2023-05-29T03:37:42;100280.50;;;24.73;31.27
60087;BME280;45960;53.630;55.972;2023-05-29T03:38:44;100271.25;;;24.74;31.21
60087;BME280;45960;53.630;55.972;2023-05-29T03:39:45;100277.63;;;24.82;31.28
60087;BME280;45960;53.630;55.972;2023-05-29T03:40:47;100264.59;;;24.84;31.19
60087;BME280;45960;53.630;55.972;2023-05-29T03:41:48;100265.94;;;24.88;31.90
60087;BME280;45960;53.630;55.972;2023-05-29T03:42:50;100266.81;;;24.95;32.08
60087;BME280;45960;53.630;55.972;2023-05-29T03:43:52;100264.38;;;25.00;31.81
60087;BME280;45960;53.630;55.972;2023-05-29T03:44:54;100264.81;;;25.04;31.40
60087;BME280;45960;53.630;55.972;2023-05-29T03:45:57;100260.44;;;25.09;31.20
60087;BME280;45960;53.630;55.972;2023-05-29T03:47:00;100259.03;;;25.13;31.63
60087;BME280;45960;53.630;55.972;2023-05-29T03:48:01;100252.81;;;25.19;31.33
60087;BME280;45960;53.630;55.972;2023-05-29T03:49:02;100253.72;;;25.27;31.32
60087;BME280;45960;53.630;55.972;2023-05-29T03:50:05;100246.09;;;25.22;31.25
60087;BME280;45960;53.630;55.972;2023-05-29T03:51:09;100253.78;;;25.33;30.96
60087;BME280;45960;53.630;55.972;2023-05-29T03:52:11;100255.66;;;25.33;30.21
60087;BME280;45960;53.630;55.972;2023-05-29T03:53:13;100247.88;;;25.30;30.42
60087;BME280;45960;53.630;55.972;2023-05-29T03:54:14;100259.28;;;25.40;30.35
60087;BME280;45960;53.630;55.972;2023-05-29T03:55:15;100236.97;;;25.36;29.92
60087;BME280;45960;53.630;55.972;2023-05-29T03:56:16;100258.91;;;25.43;29.46
60087;BME280;45960;53.630;55.972;2023-05-29T03:57:17;100258.53;;;25.46;29.02
60087;BME280;45960;53.630;55.972;2023-05-29T03:58:19;100263.00;;;25.54;29.23
60087;BME280;45960;53.630;55.972;2023-05-29T03:59:21;100267.91;;;25.65;29.20
60087;BME280;45960;53.630;55.972;2023-05-29T04:00:22;100257.88;;;25.72;28.88
60087;BME280;45960;53.630;55.972;2023-05-29T04:01:24;100256.63;;;25.75;28.64
60087;BME280;45960;53.630;55.972;2023-05-29T04:02:25;100252.44;;;25.79;28.24
60087;BME280;45960;53.630;55.972;2023-05-29T04:03:26;100246.78;;;25.80;28.35
60087;BME280;45960;53.630;55.972;2023-05-29T04:04:28;100259.28;;;25.89;27.74
60087;BME280;45960;53.630;55.972;2023-05-29T04:05:29;100259.31;;;25.96;28.22
60087;BME280;45960;53.630;55.972;2023-05-29T04:06:32;100252.41;;;26.00;27.69
60087;BME280;45960;53.630;55.972;2023-05-29T04:07:33;100254.75;;;26.03;27.82
60087;BME280;45960;53.630;55.972;2023-05-29T04:08:34;100240.66;;;26.06;27.65
60087;BME280;45960;53.630;55.972;2023-05-29T04:09:37;100253.53;;;26.12;27.42
60087;BME280;45960;53.630;55.972;2023-05-29T04:10:38;100254.81;;;26.17;27.28
60087;BME280;45960;53.630;55.972;2023-05-29T04:11:39;100260.06;;;26.18;26.78
60087;BME280;45960;53.630;55.972;2023-05-29T04:12:42;100251.03;;;26.18;27.02
60087;BME280;45960;53.630;55.972;2023-05-29T04:13:43;100256.09;;;26.21;27.02
60087;BME280;45960;53.630;55.972;2023-05-29T04:14:45;100257.00;;;26.28;27.24
60087;BME280;45960;53.630;55.972;2023-05-29T04:15:47;100244.16;;;26.35;27.54
60087;BME280;45960;53.630;55.972;2023-05-29T04:16:49;100254.94;;;26.43;27.25
60087;BME280;45960;53.630;55.972;2023-05-29T04:17:50;100248.00;;;26.47;27.31
60087;BME280;45960;53.630;55.972;2023-05-29T04:18:52;100244.03;;;26.50;27.06
60087;BME280;45960;53.630;55.972;2023-05-29T04:19:53;100238.94;;;26.47;26.54
60087;BME280;45960;53.630;55.972;2023-05-29T04:20:57;100244.25;;;26.55;26.36
60087;BME280;45960;53.630;55.972;2023-05-29T04:21:58;100247.88;;;26.62;26.47
60087;BME280;45960;53.630;55.972;2023-05-29T04:22:59;100247.47;;;26.72;26.61
60087;BME280;45960;53.630;55.972;2023-05-29T04:24:01;100249.63;;;26.83;26.83
60087;BME280;45960;53.630;55.972;2023-05-29T04:25:03;100241.19;;;26.91;26.46
60087;BME280;45960;53.630;55.972;2023-05-29T04:26:04;100237.66;;;26.97;26.38
60087;BME280;45960;53.630;55.972;2023-05-29T04:27:08;100244.16;;;26.96;25.88
60087;BME280;45960;53.630;55.972;2023-05-29T04:28:10;100247.13;;;27.01;26.06
60087;BME280;45960;53.630;55.972;2023-05-29T04:29:12;100252.19;;;27.05;26.21
60087;BME280;45960;53.630;55.972;2023-05-29T04:30:15;100244.59;;;27.07;25.88
60087;BME280;45960;53.630;55.972;2023-05-29T04:31:20;100250.09;;;27.07;26.05
60087;BME280;45960;53.630;55.972;2023-05-29T04:32:23;100242.50;;;27.09;25.88
60087;BME280;45960;53.630;55.972;2023-05-29T04:33:25;100250.75;;;27.09;25.62
60087;BME280;45960;53.630;55.972;2023-05-29T04:34:26;100250.31;;;27.12;25.61
60087;BME280;45960;53.630;55.972;2023-05-29T04:35:27;100241.28;;;27.18;25.53
60087;BME280;45960;53.630;55.972;2023-05-29T04:36:35;100248.66;;;27.24;25.57
60087;BME280;45960;53.630;55.972;2023-05-29T04:37:45;100242.09;;;27.25;25.62
60087;BME280;45960;53.630;55.972;2023-05-29T04:38:48;100245.06;;;27.30;26.24
60087;BME280;45960;53.630;55.972;2023-05-29T04:39:52;100250.59;;;27.37;26.06
60087;BME280;45960;53.630;55.972;2023-05-29T04:40:58;100248.06;;;27.42;25.79
60087;BME280;45960;53.630;55.972;2023-05-29T04:42:00;100249.72;;;27.50;25.88
60087;BME280;45960;53.630;55.972;2023-05-29T04:43:02;100245.50;;;27.54;25.88
60087;BME280;45960;53.630;55.972;2023-05-29T04:44:20;100247.16;;;27.61;25.62
60087;BME280;45960;53.630;55.972;2023-05-29T04:45:25;100248.44;;;27.65;25.28
60087;BME280;45960;53.630;55.972;2023-05-29T04:46:27;100247.59;;;27.72;25.34
60087;BME280;45960;53.630;55.972;2023-05-29T04:47:28;100249.31;;;27.79;25.63
60087;BME280;45960;53.630;55.972;2023-05-29T04:48:29;100250.13;;;27.86;25.46
60087;BME280;45960;53.630;55.972;2023-05-29T04:49:30;100248.44;;;27.92;25.52
60087;BME280;45960;53.630;55.972;2023-05-29T04:50:31;100250.94;;;28.00;25.73
60087;BME280;45960;53.630;55.972;2023-05-29T04:51:33;100247.78;;;28.10;25.15
60087;BME280;45960;53.630;55.972;2023-05-29T04:52:36;100252.19;;;28.11;25.32
60087;BME280;45960;53.630;55.972;2023-05-29T04:53:39;100262.06;;;28.25;24.94
60087;BME280;45960;53.630;55.972;2023-05-29T04:54:45;100261.19;;;28.31;24.90
60087;BME280;45960;53.630;55.972;2023-05-29T04:55:48;100262.66;;;28.41;25.30
60087;BME280;45960;53.630;55.972;2023-05-29T04:56:50;100256.53;;;28.52;25.00
60087;BME280;45960;53.630;55.972;2023-05-29T04:57:53;100261.78;;;28.60;24.68
60087;BME280;45960;53.630;55.972;2023-05-29T04:58:55;100246.97;;;28.61;24.51
60087;BME280;45960;53.630;55.972;2023-05-29T04:59:56;100258.94;;;28.73;24.99
60087;BME280;45960;53.630;55.972;2023-05-29T05:00:57;100257.44;;;28.77;24.85
60087;BME280;45960;53.630;55.972;2023-05-29T05:02:02;100262.00;;;28.90;24.97
60087;BME280;45960;53.630;55.972;2023-05-29T05:03:03;100258.22;;;28.85;24.31
60087;BME280;45960;53.630;55.972;2023-05-29T05:04:04;100265.06;;;28.75;24.25
60087;BME280;45960;53.630;55.972;2023-05-29T05:05:07;100264.44;;;28.73;23.86
60087;BME280;45960;53.630;55.972;2023-05-29T05:06:09;100263.84;;;28.71;23.85
60087;BME280;45960;53.630;55.972;2023-05-29T05:07:11;100262.56;;;28.67;23.99
60087;BME280;45960;53.630;55.972;2023-05-29T05:08:13;100258.94;;;28.73;23.98
60087;BME280;45960;53.630;55.972;2023-05-29T05:09:15;100255.31;;;28.80;24.09
60087;BME280;45960;53.630;55.972;2023-05-29T05:10:16;100255.72;;;28.83;23.98
60087;BME280;45960;53.630;55.972;2023-05-29T05:11:22;100257.38;;;28.91;23.91
60087;BME280;45960;53.630;55.972;2023-05-29T05:12:24;100266.22;;;28.93;23.81
60087;BME280;45960;53.630;55.972;2023-05-29T05:13:26;100259.06;;;28.92;24.45
60087;BME280;45960;53.630;55.972;2023-05-29T05:14:27;100274.00;;;29.03;24.13
60087;BME280;45960;53.630;55.972;2023-05-29T05:15:29;100269.13;;;29.11;24.22
60087;BME280;45960;53.630;55.972;2023-05-29T05:16:30;100268.66;;;29.14;23.88
60087;BME280;45960;53.630;55.972;2023-05-29T05:17:31;100263.34;;;29.19;23.68
60087;BME280;45960;53.630;55.972;2023-05-29T05:18:32;100265.19;;;29.26;24.02
60087;BME280;45960;53.630;55.972;2023-05-29T05:19:41;100263.84;;;29.35;24.26
60087;BME280;45960;53.630;55.972;2023-05-29T05:20:42;100265.09;;;29.39;23.95
60087;BME280;45960;53.630;55.972;2023-05-29T05:21:43;100255.16;;;29.38;23.69
60087;BME280;45960;53.630;55.972;2023-05-29T05:22:45;100257.47;;;29.41;23.99
60087;BME280;45960;53.630;55.972;2023-05-29T05:23:46;100259.31;;;29.47;23.77
60087;BME280;45960;53.630;55.972;2023-05-29T05:24:48;100274.75;;;29.48;23.18
60087;BME280;45960;53.630;55.972;2023-05-29T05:25:49;100276.44;;;29.49;23.68
60087;BME280;45960;53.630;55.972;2023-05-29T05:26:50;100284.41;;;29.57;23.92
60087;BME280;45960;53.630;55.972;2023-05-29T05:27:51;100276.44;;;29.49;23.25
60087;BME280;45960;53.630;55.972;2023-05-29T05:28:53;100269.25;;;29.48;23.63